Time;durP1;ratioP1;P1;durP2;ratioP2;P2;SDS_P1;SDS_P2;PMS_P1;PMS_P2;Temp;Humidity;BMP_temperature;BMP_pressure;BME280_temperature;BME280_humidity;BME280_pressure;Samples;Min_cycle;Max_cycle;Signal;HPM_P1;HPM_P2
2020/12/18 00:01:28;;;;;;;35.80;17.50;;;;;;;4.73;81.97;101366.64;1698142;83;21187;-74
2020/12/18 00:04:01;;;;;;;28.40;15.25;;;;;;;4.73;81.96;101362.67;1681418;84;21191;-74
2020/12/18 00:06:35;;;;;;;35.38;17.90;;;;;;;4.75;81.96;101358.14;1701414;84;21200;-74
2020/12/18 00:09:03;;;;;;;30.95;17.48;;;;;;;4.75;81.97;101358.14;1701778;82;21659;-74
2020/12/18 00:11:29;;;;;;;32.10;18.02;;;;;;;4.74;81.97;101361.26;1730769;82;21164;-73
2020/12/18 00:13:56;;;;;;;35.58;19.05;;;;;;;4.77;81.96;101364.16;1730789;82;21546;-74
2020/12/18 00:16:23;;;;;;;34.27;18.67;;;;;;;4.76;81.97;101362.45;1730779;82;21171;-74
2020/12/18 00:18:49;;;;;;;35.23;19.10;;;;;;;4.77;81.95;101358.39;1730793;82;21711;-74
2020/12/18 00:21:20;;;;;;;32.25;18.12;;;;;;;4.77;81.96;101362.83;1730599;82;21585;-74
2020/12/18 00:23:46;;;;;;;30.88;16.10;;;;;;;4.77;81.96;101370.76;1730341;82;21808;-74
2020/12/18 00:26:13;;;;;;;30.15;15.93;;;;;;;4.79;81.96;101370.16;1730915;82;21189;-74
2020/12/18 00:28:40;;;;;;;28.90;16.42;;;;;;;4.80;81.96;101374.50;1730875;82;21609;-74
2020/12/18 00:31:06;;;;;;;30.57;17.23;;;;;;;4.80;81.96;101367.42;1729859;82;21279;-75
2020/12/18 00:33:32;;;;;;;28.30;17.00;;;;;;;4.81;81.95;101372.23;1720488;83;21276;-74
2020/12/18 00:35:58;;;;;;;32.93;17.55;;;;;;;4.82;81.97;101378.71;1736394;82;21170;-75
2020/12/18 00:38:24;;;;;;;31.52;17.17;;;;;;;4.84;81.98;101368.05;1740151;82;21556;-74
2020/12/18 00:40:51;;;;;;;33.45;18.92;;;;;;;4.85;81.98;101369.74;1740253;82;21102;-74
2020/12/18 00:43:17;;;;;;;32.23;17.67;;;;;;;4.85;81.99;101373.70;1731893;80;21126;-74
2020/12/18 00:45:43;;;;;;;33.35;17.75;;;;;;;4.86;81.97;101380.66;1731864;82;21194;-74
2020/12/18 00:48:10;;;;;;;30.10;17.07;;;;;;;4.85;81.96;101378.52;1731606;81;21141;-74
2020/12/18 00:50:37;;;;;;;29.48;16.52;;;;;;;4.87;81.95;101381.03;1731720;82;21213;-74
2020/12/18 00:53:04;;;;;;;32.28;16.70;;;;;;;4.86;81.94;101384.62;1731682;82;21141;-74
2020/12/18 00:55:31;;;;;;;30.35;15.55;;;;;;;4.87;81.94;101390.28;1731682;82;21137;-75
2020/12/18 00:57:57;;;;;;;33.18;17.80;;;;;;;4.86;81.94;101396.52;1731302;82;21197;-74
2020/12/18 01:00:23;;;;;;;35.88;18.62;;;;;;;4.86;81.95;101396.05;1730926;82;21599;-74
2020/12/18 01:02:50;;;;;;;33.75;18.75;;;;;;;4.86;81.95;101396.05;1730522;81;21158;-74
2020/12/18 01:05:16;;;;;;;29.98;17.50;;;;;;;4.85;81.96;101402.30;1731095;81;21141;-75
2020/12/18 01:07:42;;;;;;;34.50;18.98;;;;;;;4.83;81.94;101398.91;1731064;82;21208;-74
2020/12/18 01:10:09;;;;;;;37.93;18.67;;;;;;;4.83;81.95;101404.19;1731106;82;21235;-74
2020/12/18 01:12:35;;;;;;;33.80;18.55;;;;;;;4.83;81.96;101400.70;1730943;81;21145;-74
2020/12/18 01:15:01;;;;;;;36.33;18.82;;;;;;;4.83;81.95;101403.34;1730594;82;21141;-74
2020/12/18 01:17:28;;;;;;;33.80;16.75;;;;;;;4.83;81.95;101409.48;1736392;81;21579;-74
2020/12/18 01:19:54;;;;;;;27.50;16.27;;;;;;;4.83;81.94;101411.27;1758907;81;21770;-74
2020/12/18 01:22:20;;;;;;;28.62;16.12;;;;;;;4.85;81.98;101410.70;1747203;81;21190;-73
2020/12/18 01:24:46;;;;;;;29.87;16.62;;;;;;;4.85;81.97;101418.16;1728730;82;21151;-74
2020/12/18 01:27:13;;;;;;;30.37;17.02;;;;;;;4.84;81.95;101424.39;1728785;82;21143;-74
2020/12/18 01:29:39;;;;;;;34.55;18.67;;;;;;;4.85;81.97;101425.24;1728876;83;21139;-75
2020/12/18 01:32:05;;;;;;;33.30;17.90;;;;;;;4.85;81.97;101431.38;1746957;80;21581;-75
2020/12/18 01:34:31;;;;;;;31.50;17.60;;;;;;;4.83;81.97;101430.63;1730139;82;22244;-75
2020/12/18 01:36:58;;;;;;;29.00;16.90;;;;;;;4.82;81.97;101436.03;1728599;83;21151;-74
2020/12/18 01:39:24;;;;;;;28.57;16.07;;;;;;;4.80;81.98;101436.59;1727854;83;21183;-74
2020/12/18 01:41:50;;;;;;;36.08;18.57;;;;;;;4.78;81.97;101436.72;1728534;82;21199;-75
2020/12/18 01:44:17;;;;;;;28.40;15.88;;;;;;;4.77;81.98;101432.85;1728828;83;21143;-74
2020/12/18 01:46:43;;;;;;;30.68;17.25;;;;;;;4.75;81.99;101429.48;1728398;82;21612;-74
2020/12/18 01:49:09;;;;;;;31.90;17.70;;;;;;;4.72;82.00;101429.67;1728537;83;21160;-74
2020/12/18 01:51:35;;;;;;;30.75;17.02;;;;;;;4.69;81.99;101427.25;1728608;83;21108;-74
2020/12/18 01:54:02;;;;;;;32.65;17.17;;;;;;;4.66;81.99;101432.75;1728741;83;21155;-75
2020/12/18 01:56:28;;;;;;;31.93;17.67;;;;;;;4.61;82.01;101425.13;1728636;83;21115;-75
2020/12/18 01:58:54;;;;;;;33.50;17.95;;;;;;;4.56;82.01;101427.74;1728648;83;21164;-74
2020/12/18 02:01:20;;;;;;;30.05;16.17;;;;;;;4.48;82.02;101425.16;1728734;83;21167;-74
2020/12/18 02:03:47;;;;;;;30.60;17.17;;;;;;;4.41;82.03;101431.80;1741629;81;21569;-74
2020/12/18 02:06:15;;;;;;;31.30;16.60;;;;;;;4.37;82.04;101430.32;1702840;82;21136;-74
2020/12/18 02:08:43;;;;;;;32.40;16.67;;;;;;;4.33;82.05;101424.88;1709050;82;21144;-73
2020/12/18 02:11:14;;;;;;;28.60;15.68;;;;;;;4.27;82.06;101422.66;1716590;82;21208;-73
2020/12/18 02:13:40;;;;;;;32.03;17.27;;;;;;;4.23;82.08;101422.50;1702801;84;21596;-73
2020/12/18 02:16:06;;;;;;;31.10;17.00;;;;;;;4.16;82.10;101429.14;1729279;82;21624;-73
2020/12/18 02:18:33;;;;;;;32.17;18.00;;;;;;;4.11;82.13;101432.58;1731973;82;21180;-73
2020/12/18 02:21:02;;;;;;;34.33;17.55;;;;;;;4.07;82.16;101435.05;1714037;82;21155;-73
2020/12/18 02:23:29;;;;;;;34.20;17.25;;;;;;;4.03;82.16;101434.88;1702924;84;21252;-73
2020/12/18 02:26:10;;;;;;;33.42;16.95;;;;;;;4.00;82.18;101426.70;1710441;82;21176;-73
2020/12/18 02:28:42;;;;;;;33.08;17.67;;;;;;;3.99;82.18;101439.98;1699765;84;21139;-73
2020/12/18 02:31:09;;;;;;;28.45;15.70;;;;;;;3.95;82.20;101453.02;1702651;84;21180;-73
2020/12/18 02:33:36;;;;;;;28.38;15.23;;;;;;;3.92;82.23;101445.30;1703048;83;21148;-74
2020/12/18 02:36:03;;;;;;;27.22;16.10;;;;;;;3.90;82.24;101446.74;1702980;83;21201;-73
2020/12/18 02:38:29;;;;;;;30.27;17.23;;;;;;;3.89;82.26;101452.11;1715025;82;21171;-73
2020/12/18 02:40:55;;;;;;;30.52;18.00;;;;;;;3.86;82.28;101450.52;1727158;83;21156;-73
2020/12/18 02:43:22;;;;;;;32.40;17.60;;;;;;;3.85;82.31;101457.20;1728718;82;21195;-73
2020/12/18 02:45:48;;;;;;;34.78;17.57;;;;;;;3.83;82.34;101452.52;1728034;82;21582;-73
2020/12/18 02:48:15;;;;;;;32.55;17.67;;;;;;;3.81;82.35;101451.75;1718705;83;21265;-73
2020/12/18 02:50:41;;;;;;;36.33;17.25;;;;;;;3.80;82.37;101459.32;1709127;83;21263;-73
2020/12/18 02:53:17;;;;;;;32.25;16.60;;;;;;;3.77;82.39;101463.45;1694484;83;21121;-73
2020/12/18 02:55:43;;;;;;;31.00;16.52;;;;;;;3.75;82.40;101459.61;1693947;84;21216;-73
2020/12/18 02:58:10;;;;;;;29.25;15.95;;;;;;;3.73;82.43;101457.53;1717641;83;21121;-72
2020/12/18 03:00:37;;;;;;;26.82;14.35;;;;;;;3.73;82.45;101456.71;1723199;83;21301;-72
2020/12/18 03:03:04;;;;;;;29.42;16.37;;;;;;;3.74;82.44;101459.23;1723573;83;21164;-72
2020/12/18 03:05:30;;;;;;;25.00;14.38;;;;;;;3.78;82.47;101453.28;1723554;82;21125;-72
2020/12/18 03:07:57;;;;;;;28.07;16.10;;;;;;;3.79;82.49;101452.34;1723219;83;21118;-72
2020/12/18 03:10:24;;;;;;;26.70;15.68;;;;;;;3.80;82.51;101448.77;1723656;83;21146;-72
2020/12/18 03:12:50;;;;;;;32.03;15.70;;;;;;;3.80;82.54;101453.55;1723564;83;21199;-72
2020/12/18 03:15:16;;;;;;;29.60;16.65;;;;;;;3.79;82.57;101456.30;1701805;83;21141;-73
2020/12/18 03:17:43;;;;;;;30.43;16.65;;;;;;;3.79;82.60;101451.02;1694550;84;21693;-72
2020/12/18 03:20:09;;;;;;;30.02;15.93;;;;;;;3.77;82.61;101448.47;1702284;84;21144;-72
2020/12/18 03:22:36;;;;;;;30.95;16.00;;;;;;;3.78;82.65;101442.73;1701979;84;21168;-72
2020/12/18 03:25:06;;;;;;;29.75;15.35;;;;;;;3.78;82.63;101448.00;1702364;82;21681;-73
2020/12/18 03:27:32;;;;;;;27.45;14.13;;;;;;;3.78;82.66;101446.69;1702447;84;21183;-73
2020/12/18 03:29:59;;;;;;;27.10;15.63;;;;;;;3.80;82.68;101450.09;1702388;83;21136;-73
2020/12/18 03:32:25;;;;;;;31.95;15.23;;;;;;;3.80;82.69;101450.09;1702338;84;21582;-73
2020/12/18 03:34:51;;;;;;;31.25;16.48;;;;;;;3.82;82.72;101456.09;1702347;84;21597;-73
2020/12/18 03:37:18;;;;;;;29.23;16.55;;;;;;;3.82;82.73;101458.27;1702239;84;21168;-73
2020/12/18 03:39:45;;;;;;;35.90;17.82;;;;;;;3.82;82.74;101458.73;1702142;84;21160;-73
2020/12/18 03:42:11;;;;;;;32.90;16.55;;;;;;;3.82;82.77;101461.38;1711952;82;21187;-73
2020/12/18 03:44:38;;;;;;;34.80;17.07;;;;;;;3.81;82.78;101459.67;1750419;82;21097;-72
2020/12/18 03:47:04;;;;;;;32.83;16.40;;;;;;;3.82;82.80;101458.73;1739379;82;21168;-72
2020/12/18 03:49:30;;;;;;;31.52;15.40;;;;;;;3.84;82.81;101464.73;1720885;83;21606;-73
2020/12/18 03:51:57;;;;;;;30.37;16.90;;;;;;;3.86;82.80;101458.91;1720914;82;21140;-73
2020/12/18 03:54:23;;;;;;;30.35;15.88;;;;;;;3.87;82.81;101459.29;1721044;83;21132;-73
2020/12/18 03:56:49;;;;;;;28.73;15.68;;;;;;;3.89;82.82;101460.02;1721114;83;21140;-72
2020/12/18 03:59:15;;;;;;;30.92;16.12;;;;;;;3.92;82.85;101467.73;1745658;82;21181;-73
2020/12/18 04:01:42;;;;;;;29.55;16.37;;;;;;;3.93;82.86;101469.43;1750983;82;21265;-72
2020/12/18 04:04:08;;;;;;;30.37;16.97;;;;;;;3.91;82.87;101467.34;1751088;82;21148;-72
2020/12/18 04:06:34;;;;;;;27.65;16.12;;;;;;;3.88;82.87;101463.59;1750653;82;21594;-72
2020/12/18 04:09:00;;;;;;;30.72;17.20;;;;;;;3.85;82.89;101467.29;1750895;82;21176;-73
2020/12/18 04:11:28;;;;;;;31.48;16.82;;;;;;;3.79;82.92;101465.06;1750947;82;21181;-72
2020/12/18 04:13:54;;;;;;;31.37;16.20;;;;;;;3.77;82.92;101466.09;1750837;82;21249;-73
2020/12/18 04:16:20;;;;;;;30.37;15.90;;;;;;;3.73;82.91;101480.45;1750948;82;21144;-73
2020/12/18 04:18:48;;;;;;;27.35;15.95;;;;;;;3.68;82.91;101470.66;1750950;82;21132;-72
2020/12/18 04:21:15;;;;;;;34.23;16.10;;;;;;;3.67;82.92;101479.04;1750836;82;21577;-73
2020/12/18 04:23:42;;;;;;;30.88;16.75;;;;;;;3.64;82.94;101479.23;1750894;82;21561;-73
2020/12/18 04:26:08;;;;;;;35.95;17.90;;;;;;;3.62;82.96;101481.15;1740916;82;21637;-73
2020/12/18 04:28:35;;;;;;;33.15;17.92;;;;;;;3.60;82.97;101479.53;1720945;83;21180;-73
2020/12/18 04:31:01;;;;;;;33.73;18.30;;;;;;;3.59;82.98;101483.13;1721170;82;21199;-73
2020/12/18 04:33:27;;;;;;;32.20;16.67;;;;;;;3.57;83.00;101481.05;1721084;83;21120;-73
2020/12/18 04:35:53;;;;;;;28.02;16.02;;;;;;;3.59;83.00;101484.45;1720932;83;21141;-73
2020/12/18 04:38:20;;;;;;;29.90;14.85;;;;;;;3.61;83.00;101477.27;1748414;82;21942;-73
2020/12/18 04:40:46;;;;;;;28.17;15.18;;;;;;;3.65;82.99;101482.73;1750397;82;21144;-72
2020/12/18 04:43:12;;;;;;;33.45;16.32;;;;;;;3.68;83.00;101483.38;1719876;82;21208;-73
2020/12/18 04:45:38;;;;;;;30.02;15.58;;;;;;;3.73;83.01;101489.69;1731645;82;21168;-72
2020/12/18 04:48:07;;;;;;;26.68;15.03;;;;;;;3.74;83.02;101484.76;1731684;82;21136;-72
2020/12/18 04:50:33;;;;;;;32.55;17.55;;;;;;;3.77;83.00;101488.52;1731583;82;21306;-72
2020/12/18 04:53:01;;;;;;;28.17;16.15;;;;;;;3.80;83.02;101492.30;1731791;82;21475;-72
2020/12/18 04:55:28;;;;;;;32.15;16.75;;;;;;;3.82;83.06;101496.98;1685676;84;21160;-73
2020/12/18 04:57:56;;;;;;;33.05;16.82;;;;;;;3.80;83.05;101488.34;1702501;82;21132;-73
2020/12/18 05:00:23;;;;;;;30.88;16.70;;;;;;;3.81;83.07;101491.33;1702502;84;21569;-73
2020/12/18 05:02:49;;;;;;;34.13;17.70;;;;;;;3.79;83.07;101490.59;1702301;82;21216;-73
2020/12/18 05:05:15;;;;;;;28.50;15.78;;;;;;;3.80;83.08;101492.30;1682221;84;21136;-73
2020/12/18 05:07:42;;;;;;;28.23;15.83;;;;;;;3.79;83.06;101495.88;1721654;82;21180;-73
2020/12/18 05:10:08;;;;;;;28.57;16.50;;;;;;;3.78;83.07;101499.45;1731395;82;21447;-73
2020/12/18 05:12:35;;;;;;;31.75;17.12;;;;;;;3.78;83.06;101499.45;1731667;82;21148;-73
2020/12/18 05:15:06;;;;;;;30.27;16.95;;;;;;;3.77;83.08;101500.38;1704704;82;21219;-73
2020/12/18 05:17:32;;;;;;;30.30;17.25;;;;;;;3.74;83.09;101500.59;1702344;84;21184;-73
2020/12/18 05:20:00;;;;;;;30.45;17.00;;;;;;;3.69;83.10;101502.22;1702322;84;21168;-72
2020/12/18 05:22:26;;;;;;;32.30;17.70;;;;;;;3.65;83.09;101498.55;1682906;84;21563;-73
2020/12/18 05:24:55;;;;;;;31.45;16.80;;;;;;;3.57;83.11;101495.55;1702361;84;21140;-73
2020/12/18 05:27:22;;;;;;;30.32;18.10;;;;;;;3.49;83.10;101496.89;1722677;83;22076;-73
2020/12/18 05:29:49;;;;;;;30.27;16.10;;;;;;;3.40;83.13;101500.12;1693823;83;21163;-73
2020/12/18 05:32:15;;;;;;;34.88;16.95;;;;;;;3.34;83.12;101495.22;1692068;84;21199;-73
2020/12/18 05:34:45;;;;;;;27.98;15.55;;;;;;;3.29;83.12;101501.73;1674386;85;21136;-73
2020/12/18 05:37:13;;;;;;;33.08;16.27;;;;;;;3.25;83.10;101503.72;1702612;84;21155;-73
2020/12/18 05:39:40;;;;;;;28.57;14.70;;;;;;;3.22;83.11;101503.06;1694620;84;21211;-73
2020/12/18 05:42:06;;;;;;;32.20;15.23;;;;;;;3.17;83.12;101505.97;1702952;82;21141;-73
2020/12/18 05:44:33;;;;;;;30.48;15.10;;;;;;;3.13;83.13;101511.55;1702353;82;21179;-73
2020/12/18 05:47:08;;;;;;;33.10;17.62;;;;;;;3.09;83.16;101512.22;1702380;82;21566;-73
2020/12/18 05:49:38;;;;;;;32.75;16.73;;;;;;;3.07;83.15;101514.08;1705451;82;21598;-73
2020/12/18 05:52:07;;;;;;;32.78;17.75;;;;;;;3.02;83.18;101517.48;1731679;82;21172;-73
2020/12/18 05:54:37;;;;;;;31.82;16.97;;;;;;;2.99;83.18;101520.31;1731632;82;21183;-73
2020/12/18 05:57:11;;;;;;;;;;;;;;;2.96;83.22;101521.79;1734340;82;21136;-73
2020/12/18 05:59:47;;;;;;;32.60;17.45;;;;;;;2.93;83.23;101525.47;1731621;82;20252;-73
2020/12/18 06:02:15;;;;;;;34.90;17.00;;;;;;;2.90;83.24;101530.08;1731657;82;21550;-73
2020/12/18 06:04:42;;;;;;;34.23;17.12;;;;;;;2.86;83.24;101529.88;1731529;82;21292;-73
2020/12/18 06:07:08;;;;;;;33.18;17.40;;;;;;;2.84;83.27;101531.77;1731560;82;21136;-73
2020/12/18 06:09:38;;;;;;;33.80;16.30;;;;;;;2.81;83.25;101533.28;1731629;82;21149;-72
2020/12/18 06:12:09;;;;;;;27.52;14.75;;;;;;;2.78;83.27;101528.20;1731688;81;21172;-73
2020/12/18 06:14:36;;;;;;;31.97;16.07;;;;;;;2.75;83.29;101529.67;1706802;82;21213;-73
2020/12/18 06:17:10;;;;;;;27.17;15.28;;;;;;;2.76;83.31;101534.02;1714225;82;21212;-73
2020/12/18 06:19:42;;;;;;;32.25;16.37;;;;;;;2.75;83.33;101540.21;1731295;82;21196;-73
2020/12/18 06:22:12;;;;;;;33.23;16.82;;;;;;;2.72;83.37;101541.72;1731617;82;21531;-73
2020/12/18 06:24:41;;;;;;;29.60;15.53;;;;;;;2.69;83.38;101543.22;1731637;81;21144;-73
2020/12/18 06:27:12;;;;;;;28.35;15.03;;;;;;;2.67;83.41;101554.33;1731649;82;21173;-72
2020/12/18 06:29:38;;;;;;;35.98;17.75;;;;;;;2.63;83.41;101551.49;1731717;82;21207;-73
2020/12/18 06:32:27;;;;;;;30.05;16.15;;;;;;;2.60;83.41;101550.36;1731499;82;21558;-72
2020/12/18 06:34:54;;;;;;;34.53;17.50;;;;;;;2.58;83.45;101554.39;1731784;82;21144;-73
2020/12/18 06:37:27;;;;;;;32.15;17.02;;;;;;;2.54;83.47;101558.14;1731605;82;21391;-72
2020/12/18 06:39:53;;;;;;;31.68;16.30;;;;;;;2.51;83.50;101565.76;1730515;82;21589;-73
2020/12/18 06:42:29;;;;;;;32.88;16.65;;;;;;;2.51;83.50;101566.22;1731614;81;21202;-72
2020/12/18 06:44:59;;;;;;;28.85;14.28;;;;;;;2.47;83.53;101565.55;1743931;82;21176;-73
2020/12/18 06:47:29;;;;;;;29.52;15.85;;;;;;;2.46;83.56;101566.97;1750859;82;21137;-73
2020/12/18 06:49:58;;;;;;;29.80;15.63;;;;;;;2.47;83.59;101570.81;1750957;82;21145;-73
2020/12/18 06:52:48;;;;;;;37.42;19.25;;;;;;;2.49;83.62;101572.91;1751060;82;21109;-73
2020/12/18 06:55:31;;;;;;;36.33;18.45;;;;;;;2.48;83.63;101573.84;1751073;81;22097;-72
2020/12/18 06:58:09;;;;;;;32.90;18.07;;;;;;;2.48;83.64;101575.16;1750773;82;21211;-73
2020/12/18 07:00:56;;;;;;;38.50;18.73;;;;;;;2.46;83.67;101573.06;1750811;82;21120;-73
2020/12/18 07:03:40;;;;;;;35.05;16.50;;;;;;;2.43;83.72;101579.83;1750751;82;21196;-73
2020/12/18 07:09:07;;;;;;;32.80;16.40;;;;;;;2.47;83.75;101578.72;1811319;78;22820;-74
2020/12/18 07:11:33;;;;;;;33.40;17.05;;;;;;;2.42;83.75;101582.56;1761184;79;21147;-74
2020/12/18 07:14:00;;;;;;;36.00;16.40;;;;;;;2.43;83.75;101592.13;1736565;79;22143;-74
2020/12/18 07:16:26;;;;;;;35.35;18.67;;;;;;;2.44;83.77;101586.80;1761264;79;21580;-74
2020/12/18 07:19:00;;;;;;;47.23;24.30;;;;;;;2.46;83.76;101584.09;1768695;79;21555;-74
2020/12/18 07:21:26;;;;;;;49.33;25.32;;;;;;;2.47;83.78;101588.39;1767808;79;21098;-74
2020/12/18 07:23:52;;;;;;;68.97;34.03;;;;;;;2.47;83.82;101586.61;1757680;81;21148;-73
2020/12/18 07:26:19;;;;;;;66.50;34.30;;;;;;;2.49;83.81;101590.02;1772896;80;22244;-74
2020/12/18 07:28:46;;;;;;;57.17;30.02;;;;;;;2.51;83.85;101592.08;1788867;80;21112;-73
2020/12/18 07:31:25;;;;;;;50.75;24.65;;;;;;;2.51;83.85;101593.40;1773549;80;21132;-74
2020/12/18 07:33:56;;;;;;;52.70;25.53;;;;;;;2.53;83.85;101597.73;1777053;80;21168;-74
2020/12/18 07:36:27;;;;;;;39.50;19.40;;;;;;;2.58;83.86;101601.78;1779262;80;21175;-74
2020/12/18 07:39:00;;;;;;;39.55;20.43;;;;;;;2.61;83.87;101601.60;1788918;80;21200;-74
2020/12/18 07:41:31;;;;;;;35.98;18.90;;;;;;;2.66;83.88;101612.73;1788836;80;21143;-74
2020/12/18 07:44:07;;;;;;;30.65;17.65;;;;;;;2.68;83.87;101602.94;1788410;80;21167;-75
2020/12/18 07:46:35;;;;;;;31.77;16.27;;;;;;;2.68;83.90;101602.08;1788814;80;21128;-75
2020/12/18 07:49:09;;;;;;;27.10;15.13;;;;;;;2.70;83.91;101602.86;1787626;80;21605;-75
2020/12/18 07:51:37;;;;;;;34.60;17.25;;;;;;;2.74;83.93;101606.55;1787927;80;21260;-74
2020/12/18 07:54:04;;;;;;;32.67;17.80;;;;;;;2.78;83.94;101607.22;1788801;80;21132;-74
2020/12/18 07:56:30;;;;;;;35.23;18.12;;;;;;;2.79;83.96;101605.80;1778889;80;21117;-74
2020/12/18 07:59:08;;;;;;;35.70;16.77;;;;;;;2.81;83.97;101604.40;1775687;80;21164;-74
2020/12/18 08:01:36;;;;;;;29.25;17.37;;;;;;;2.83;83.98;101601.19;1729897;82;21147;-74
2020/12/18 08:04:10;;;;;;;36.28;18.62;;;;;;;2.87;83.98;101605.34;1772394;80;21261;-75
2020/12/18 08:06:38;;;;;;;32.00;16.17;;;;;;;2.88;83.99;101602.63;1757466;81;21136;-75
2020/12/18 08:09:11;;;;;;;32.13;16.25;;;;;;;2.94;84.00;101610.63;1757419;80;21834;-74
2020/12/18 08:11:42;;;;;;;27.50;15.72;;;;;;;2.99;84.00;101609.90;1742168;82;21570;-74
2020/12/18 08:14:09;;;;;;;28.47;15.95;;;;;;;3.07;83.99;101611.58;1772354;78;21107;-74
2020/12/18 08:16:35;;;;;;;34.50;16.80;;;;;;;3.17;83.99;101615.81;1780658;78;22058;-75
2020/12/18 08:19:09;;;;;;;30.15;15.23;;;;;;;3.24;83.98;101610.08;1745271;80;21554;-74
2020/12/18 08:21:40;;;;;;;43.73;19.70;;;;;;;3.31;83.97;101610.09;1760989;80;21192;-74
2020/12/18 08:24:23;;;;;;;34.55;17.37;;;;;;;3.39;83.97;101610.47;1786232;80;21128;-74
2020/12/18 08:27:13;;;;;;;29.12;15.90;;;;;;;3.49;83.96;101619.51;1785995;80;21176;-74
2020/12/18 08:29:40;;;;;;;23.85;12.40;;;;;;;3.58;83.97;101623.84;1784246;80;21254;-74
2020/12/18 08:32:07;;;;;;;31.15;16.42;;;;;;;3.66;83.95;101621.59;1786681;80;21120;-74
2020/12/18 08:34:34;;;;;;;27.48;15.32;;;;;;;3.72;83.96;101620.73;1786781;80;21196;-74
2020/12/18 08:37:02;;;;;;;37.40;18.52;;;;;;;3.79;83.94;101625.14;1752628;80;21167;-74
2020/12/18 08:39:31;;;;;;;26.95;15.05;;;;;;;3.79;83.91;101622.50;1785953;80;21126;-74
2020/12/18 08:41:57;;;;;;;29.67;15.58;;;;;;;3.80;83.88;101621.07;1781095;78;21625;-74
2020/12/18 08:44:28;;;;;;;31.97;16.48;;;;;;;3.84;83.87;101627.00;1781570;80;21112;-74
2020/12/18 08:46:56;;;;;;;30.68;15.20;;;;;;;3.86;83.85;101625.13;1787900;80;21179;-74
2020/12/18 08:49:27;;;;;;;30.92;15.35;;;;;;;3.89;83.82;101627.11;1787941;80;21132;-74
2020/12/18 08:51:55;;;;;;;29.25;16.32;;;;;;;3.94;83.79;101628.14;1788168;80;21148;-74
2020/12/18 08:54:35;;;;;;;27.58;14.95;;;;;;;3.99;83.77;101629.53;1788072;80;21196;-74
2020/12/18 08:57:26;;;;;;;32.00;16.30;;;;;;;4.03;83.74;101631.50;1788254;80;21139;-74
2020/12/18 09:00:15;;;;;;;37.65;19.02;;;;;;;4.08;83.72;101633.39;1788032;80;21121;-75
2020/12/18 09:02:56;;;;;;;27.73;14.70;;;;;;;4.16;83.68;101637.69;1784944;79;21589;-74
2020/12/18 09:05:31;;;;;;;31.33;16.40;;;;;;;4.21;83.66;101636.08;1788368;80;21124;-74
2020/12/18 09:08:07;;;;;;;29.27;16.37;;;;;;;4.23;83.64;101631.53;1787648;79;22041;-75
2020/12/18 09:10:47;;;;;;;31.80;15.93;;;;;;;4.27;83.57;101627.28;1779418;80;21600;-74
2020/12/18 09:13:19;;;;;;;29.30;15.35;;;;;;;4.34;83.54;101627.26;1772315;80;21155;-74
2020/12/18 09:15:50;;;;;;;26.02;14.13;;;;;;;4.41;83.48;101627.23;1765516;80;21116;-75
2020/12/18 09:18:33;;;;;;;25.30;14.13;;;;;;;4.53;83.44;101618.52;1808701;78;23335;-73
2020/12/18 09:21:16;;;;;;;26.60;13.88;;;;;;;4.54;83.38;101616.69;1788513;79;21139;-75
2020/12/18 09:23:43;;;;;;;28.23;15.60;;;;;;;4.59;83.36;101609.33;1770198;79;21616;-74
2020/12/18 09:26:10;;;;;;;27.00;16.05;;;;;;;4.65;83.33;101610.70;1787384;79;21204;-75
2020/12/18 09:28:38;;;;;;;28.40;16.07;;;;;;;4.72;83.29;101617.27;1755494;80;21132;-75
2020/12/18 09:31:09;;;;;;;34.20;17.32;;;;;;;4.76;83.26;101614.80;1775119;80;21605;-75
2020/12/18 09:33:37;;;;;;;34.88;19.98;;;;;;;4.83;83.23;101617.39;1716086;82;27978;-75
2020/12/18 09:36:09;;;;;;;30.00;18.10;;;;;;;4.90;83.18;101616.03;1781905;80;21196;-75
2020/12/18 09:38:44;;;;;;;29.42;17.02;;;;;;;4.95;83.13;101616.58;1715077;82;21540;-75
2020/12/18 09:41:21;;;;;;;25.43;12.63;;;;;;;5.00;83.07;101617.95;1776532;80;21179;-75
2020/12/18 09:43:49;;;;;;;27.67;14.78;;;;;;;5.07;83.01;101613.09;1784810;80;21167;-74
2020/12/18 09:46:18;;;;;;;20.82;12.43;;;;;;;5.14;82.97;101615.69;1792997;79;21088;-74
2020/12/18 09:48:45;;;;;;;26.12;14.25;;;;;;;5.20;82.93;101617.08;1783635;80;21282;-76
2020/12/18 09:51:12;;;;;;;25.02;13.72;;;;;;;5.26;82.88;101617.97;1786140;79;21127;-74
2020/12/18 09:53:38;;;;;;;29.57;15.85;;;;;;;5.29;82.84;101615.95;1779271;80;21132;-74
2020/12/18 09:56:09;;;;;;;29.45;14.30;;;;;;;5.33;82.81;101617.44;1769449;80;21159;-73
2020/12/18 09:58:35;;;;;;;30.02;16.07;;;;;;;5.38;82.76;101612.66;1762777;80;21104;-74
2020/12/18 10:01:01;;;;;;;31.93;17.17;;;;;;;5.42;82.72;101605.36;1766406;79;22072;-74
2020/12/18 10:03:28;;;;;;;37.80;20.82;;;;;;;5.43;82.68;101611.88;1764133;79;21232;-74
2020/12/18 10:05:54;;;;;;;30.40;16.87;;;;;;;5.46;82.62;101619.59;1759530;80;21240;-74
2020/12/18 10:08:20;;;;;;;34.60;18.62;;;;;;;5.51;82.58;101617.48;1764563;80;21167;-74
2020/12/18 10:10:47;;;;;;;31.62;17.60;;;;;;;5.56;82.53;101612.35;1765600;80;21513;-74
2020/12/18 10:13:14;;;;;;;30.43;16.30;;;;;;;5.57;82.47;101612.70;1762586;80;21768;-74
2020/12/18 10:15:41;;;;;;;27.55;14.63;;;;;;;5.60;82.41;101617.77;1761025;80;21223;-74
2020/12/18 10:18:07;;;;;;;27.35;13.83;;;;;;;5.63;82.34;101616.26;1758927;80;21259;-74
2020/12/18 10:20:33;;;;;;;33.55;15.58;;;;;;;5.64;82.27;101615.28;1722304;82;21157;-74
2020/12/18 10:22:59;;;;;;;24.45;13.72;;;;;;;5.66;82.22;101616.03;1724117;82;21163;-74
2020/12/18 10:25:26;;;;;;;31.25;16.62;;;;;;;5.68;82.18;101614.97;1727060;82;21210;-74
2020/12/18 10:27:52;;;;;;;37.38;22.75;;;;;;;5.73;82.14;101614.64;1726952;82;21154;-74
2020/12/18 10:30:18;;;;;;;34.10;20.20;;;;;;;5.78;82.09;101609.85;1725054;82;21187;-74
2020/12/18 10:32:45;;;;;;;32.98;20.02;;;;;;;5.76;82.00;101611.78;1758610;80;21612;-74
2020/12/18 10:35:11;;;;;;;30.97;17.23;;;;;;;5.77;81.98;101608.19;1758848;80;21675;-74
2020/12/18 10:37:38;;;;;;;34.00;18.25;;;;;;;5.76;81.95;101613.10;1756212;80;21221;-75
2020/12/18 10:40:05;;;;;;;41.15;20.02;;;;;;;5.75;81.88;101604.78;1759635;80;21200;-75
2020/12/18 10:42:31;;;;;;;39.23;20.30;;;;;;;5.79;81.85;101615.52;1758924;80;21199;-75
2020/12/18 10:44:58;;;;;;;43.92;22.32;;;;;;;5.80;81.76;101612.78;1752352;80;21136;-75
2020/12/18 10:47:24;;;;;;;29.92;16.02;;;;;;;5.81;81.69;101603.02;1752556;80;21143;-75
2020/12/18 10:49:50;;;;;;;30.85;15.50;;;;;;;5.81;81.64;101604.34;1764692;80;21196;-74
2020/12/18 10:52:16;;;;;;;30.52;15.18;;;;;;;5.80;81.55;101605.31;1761382;80;21179;-74
2020/12/18 10:54:43;;;;;;;26.62;13.35;;;;;;;5.81;81.51;101605.66;1757682;80;21143;-75
2020/12/18 10:57:09;;;;;;;33.60;14.50;;;;;;;5.85;81.42;101605.81;1749288;82;21226;-74
2020/12/18 10:59:35;;;;;;;38.60;20.00;;;;;;;5.91;81.38;101605.43;1756537;80;21602;-74
2020/12/18 11:02:02;;;;;;;37.53;19.40;;;;;;;5.97;81.34;101607.63;1757988;80;22064;-74
2020/12/18 11:04:29;;;;;;;37.98;18.82;;;;;;;6.02;81.30;101605.00;1757091;80;21170;-75
2020/12/18 11:06:55;;;;;;;39.78;19.20;;;;;;;6.04;81.25;101600.93;1745971;81;21664;-74
2020/12/18 11:09:21;;;;;;;26.07;14.15;;;;;;;6.10;81.17;101597.83;1752306;80;21204;-75
2020/12/18 11:11:53;;;;;;;26.17;14.70;;;;;;;6.13;81.13;101598.08;1753917;80;21195;-75
2020/12/18 11:14:20;;;;;;;26.20;14.35;;;;;;;6.09;81.08;101601.42;1763703;80;21276;-74
2020/12/18 11:16:46;;;;;;;32.03;16.70;;;;;;;6.07;81.01;101602.50;1759257;80;21711;-74
2020/12/18 11:19:13;;;;;;;28.35;15.63;;;;;;;6.07;80.97;101595.41;1756262;80;21191;-75
2020/12/18 11:21:44;;;;;;;23.05;13.08;;;;;;;6.07;80.91;101596.73;1742104;81;21148;-75
2020/12/18 11:24:11;;;;;;;21.97;13.32;;;;;;;6.05;80.88;101592.04;1737669;81;21161;-76
2020/12/18 11:26:37;;;;;;;24.52;13.65;;;;;;;6.04;80.82;101595.63;1757823;81;21277;-75